AirNav   TITAN Aviation Fuels
 
 1481 users online  

PN11 Reno Airport
Enon Valley, Pennsylvania, USA

GOING TO ENON VALLEY?


FAA INFORMATION EFFECTIVE 02 DECEMBER 2021

Location

FAA Identifier: PN11
Lat/Long: 40-53-23.2220N 080-29-11.2430W
40-53.387033N 080-29.187383W
40.8897839,-80.4864564
(estimated)
Elevation: 1160 ft. / 354 m (estimated)
Variation: 07W (1985)
From city: 3 miles NE of ENON VALLEY, PA
Time zone: UTC -5 (UTC -4 during Daylight Saving Time)
Zip code: 16120

Airport Operations

Airport use: Private use. Permission required prior to landing
Control tower: no
ARTCC: CLEVELAND CENTER
FSS: ALTOONA FLIGHT SERVICE STATION
Attendance: UNATNDD
Wind indicator: no
Segmented circle: no

Airport Communications

WX AWOS-3PT at BVI (8 nm SE): 118.35 (724-843-1024)
WX AWOS-3PT at UCP (9 nm N): 124.175 ((724) 652-4184)
WX AWOS-3PT at PJC (16 nm E): 118.45 (724-452-5304)

Nearby radio navigation aids

VOR radial/distance  VOR name  Freq  Var
EWCr295/13.1ELLWOOD CITY VOR/DME115.8008W
YNGr167/27.8YOUNGSTOWN VORTAC109.0005W
ACOr116/34.9AKRON VOR/DME114.4004W
HLGr013/38.0WHEELING VOR/DME112.2007W

 
NDB name  Hdg/Dist  Freq  Var  ID
CASTLE211/8.627209WUCP ..- -.-. .--.

Airport Services

Airframe service: NONE
Powerplant service: NONE

Runway Information

Runway 9/27

Dimensions: 2100 x 120 ft. / 640 x 37 m
Surface: turf
RUNWAY 9  RUNWAY 27
Traffic pattern: leftleft

Airport Ownership and Management from official FAA records

Ownership: Privately-owned
Owner: ROBERT D. RENO
202 RENO LN
ENON VALLEY, PA 16120
Phone 412-336-6631
Manager: ROBERT D. RENO
202 RENO LN
ENON VALLEY, PA 16120
Phone 412-336-6631

Airport Operational Statistics

Aircraft based on the field: 1
Single engine airplanes: 1
    

Additional Remarks

FOR CD CTC PITTSBURGH APCH AT 412-472-5591

Instrument Procedures

There are no published instrument procedures at PN11.

Some nearby airports with instrument procedures:

KBVI - Beaver County Airport (8 nm SE)
KUCP - New Castle Municipal Airport (9 nm N)
4G4 - Youngstown Elser Metro Airport (10 nm NW)
02G - Columbiana County Airport (15 nm SW)
KPJC - Zelienople Municipal Airport (16 nm E)
38D - Salem Airpark Inc (17 nm W)
 
Loc | Ops | Rwys | IFR | FBO | Links
Com | Nav | Svcs | Stats | Notes
Area around PN11 (Reno Airport)
 
Road maps at: MapQuest Bing Google
 
Aerial photo
No photo
 
Sectional chart

 
Airport distance calculator
Flying to Reno Airport? Find the distance to fly.

From to PN11

Sunrise and sunset
Times for 06-Dec-2021
 Local
(UTC-5)
 Zulu
(UTC)
Morning civil twilight07:0212:02
Sunrise07:3312:33
Sunset16:5321:53
Evening civil twilight17:2422:24

Current date and time
Zulu (UTC)  06-Dec-2021 17:45:09
Local (UTC-5)  06-Dec-2021 12:45:09
 
METAR
KBVI 
8nm SE 
061735Z AUTO 24016G27KT 10SM -RA CLR 11/08 A2965 RMK AO2 T01090077
KUCP 
9nm N 
061742Z AUTO 26014KT 10SM SCT014 OVC031 08/05 A2966 RMK AO2 PK WND 25028/1728 RAE28 P0000
KPJC 
16nm E 
061735Z AUTO 25007G16KT 10SM -RA SCT018 SCT026 OVC039 10/08 A2964 RMK AO2 P0001
TAF
KBVI 
8nm SE 
061125Z 0612/0712 19015G22KT 5SM -SHRA OVC017 WS020/21045KT FM061300 23013G23KT 3SM -SHRA OVC012 WS020/21045KT FM061700 27015G29KT 5SM -SHRA OVC020 FM061900 27016G27KT P6SM OVC035 FM070300 27012KT P6SM BKN040
NOTAMs
Click for the latest NOTAMs
NOTAMs are issued by the DoD/FAA and will open in a separate window not controlled by AirNav.

 

 
 

Would you like to see your business listed on this page?

 If your business provides an interesting product or service to pilots, flight crews, aircraft, or users of the Reno Airport, you should consider listing it here.  To start the listing process, click on the button below
 
Add a business
 

Other Pages about Reno Airport

Update a link
 
Copyright © AirNav, LLC. All rights reserved. Privacy Policy  Contact